sensor_id;sensor_type;location;lat;lon;timestamp;pressure;altitude;pressure_sealevel;temperature;humidity
10466;BME280;5280;42.600;23.556;2023-05-01T00:00:00;93347.75;;;10.41;100.00
10466;BME280;5280;42.600;23.556;2023-05-01T00:02:32;93369.59;;;10.31;100.00
10466;BME280;5280;42.600;23.556;2023-05-01T00:04:58;93374.66;;;10.46;100.00
10466;BME280;5280;42.600;23.556;2023-05-01T00:07:25;93357.72;;;10.37;100.00
10466;BME280;5280;42.600;23.556;2023-05-01T00:09:55;93371.16;;;10.45;100.00
10466;BME280;5280;42.600;23.556;2023-05-01T00:12:22;93367.22;;;10.40;100.00
10466;BME280;5280;42.600;23.556;2023-05-01T00:14:52;93366.72;;;10.34;100.00
10466;BME280;5280;42.600;23.556;2023-05-01T00:17:19;93379.69;;;10.38;100.00
10466;BME280;5280;42.600;23.556;2023-05-01T00:19:50;93379.81;;;10.36;100.00
10466;BME280;5280;42.600;23.556;2023-05-01T00:22:17;93368.16;;;10.27;100.00
10466;BME280;5280;42.600;23.556;2023-05-01T00:24:44;93364.69;;;10.16;100.00
10466;BME280;5280;42.600;23.556;2023-05-01T00:27:12;93386.53;;;10.29;100.00
10466;BME280;5280;42.600;23.556;2023-05-01T00:29:39;93391.22;;;10.25;100.00
10466;BME280;5280;42.600;23.556;2023-05-01T00:32:07;93300.78;;;9.66;100.00
10466;BME280;5280;42.600;23.556;2023-05-01T00:34:34;93380.63;;;10.14;100.00
10466;BME280;5280;42.600;23.556;2023-05-01T00:37:01;93370.63;;;10.07;100.00
10466;BME280;5280;42.600;23.556;2023-05-01T00:39:28;93392.41;;;10.21;100.00
10466;BME280;5280;42.600;23.556;2023-05-01T00:41:55;93387.47;;;10.17;100.00
10466;BME280;5280;42.600;23.556;2023-05-01T00:44:21;93365.00;;;10.00;100.00
10466;BME280;5280;42.600;23.556;2023-05-01T00:46:48;93354.69;;;9.86;100.00
10466;BME280;5280;42.600;23.556;2023-05-01T00:49:17;93373.66;;;9.91;100.00
10466;BME280;5280;42.600;23.556;2023-05-01T00:51:46;93391.16;;;10.03;100.00
10466;BME280;5280;42.600;23.556;2023-05-01T00:54:15;93399.19;;;10.02;100.00
10466;BME280;5280;42.600;23.556;2023-05-01T00:56:42;93397.75;;;9.98;100.00
10466;BME280;5280;42.600;23.556;2023-05-01T00:59:09;93399.06;;;10.03;100.00
10466;BME280;5280;42.600;23.556;2023-05-01T01:01:38;93402.91;;;9.99;100.00
10466;BME280;5280;42.600;23.556;2023-05-01T01:04:06;93393.78;;;9.92;100.00
10466;BME280;5280;42.600;23.556;2023-05-01T01:06:45;93412.03;;;9.95;100.00
10466;BME280;5280;42.600;23.556;2023-05-01T01:09:22;93409.84;;;9.89;100.00
10466;BME280;5280;42.600;23.556;2023-05-01T01:12:02;93380.31;;;9.73;100.00
10466;BME280;5280;42.600;23.556;2023-05-01T01:14:37;93372.59;;;9.59;100.00
10466;BME280;5280;42.600;23.556;2023-05-01T01:17:12;93403.84;;;9.76;100.00
10466;BME280;5280;42.600;23.556;2023-05-01T01:22:52;93406.63;;;9.85;100.00
10466;BME280;5280;42.600;23.556;2023-05-01T01:25:32;93413.06;;;9.81;100.00
10466;BME280;5280;42.600;23.556;2023-05-01T01:28:23;93414.59;;;9.73;100.00
10466;BME280;5280;42.600;23.556;2023-05-01T01:31:10;93406.34;;;9.66;100.00
10466;BME280;5280;42.600;23.556;2023-05-01T01:33:54;93388.19;;;9.50;100.00
10466;BME280;5280;42.600;23.556;2023-05-01T01:36:38;93422.88;;;9.68;100.00
10466;BME280;5280;42.600;23.556;2023-05-01T01:39:10;93422.28;;;9.65;100.00
10466;BME280;5280;42.600;23.556;2023-05-01T01:41:39;93392.47;;;9.51;100.00
10466;BME280;5280;42.600;23.556;2023-05-01T01:44:10;93419.03;;;9.72;100.00
10466;BME280;5280;42.600;23.556;2023-05-01T01:46:40;93421.47;;;9.75;100.00
10466;BME280;5280;42.600;23.556;2023-05-01T01:49:14;93411.63;;;9.77;100.00
10466;BME280;5280;42.600;23.556;2023-05-01T01:51:41;93398.41;;;9.66;100.00
10466;BME280;5280;42.600;23.556;2023-05-01T01:54:10;93406.00;;;9.71;100.00
10466;BME280;5280;42.600;23.556;2023-05-01T01:56:40;93413.19;;;9.80;100.00
10466;BME280;5280;42.600;23.556;2023-05-01T01:59:08;93406.69;;;9.73;100.00
10466;BME280;5280;42.600;23.556;2023-05-01T02:01:38;93397.94;;;9.72;100.00
10466;BME280;5280;42.600;23.556;2023-05-01T02:04:06;93389.53;;;9.67;100.00
10466;BME280;5280;42.600;23.556;2023-05-01T02:06:36;93387.03;;;9.66;100.00
10466;BME280;5280;42.600;23.556;2023-05-01T02:09:04;93396.88;;;9.75;100.00
10466;BME280;5280;42.600;23.556;2023-05-01T02:11:34;93398.28;;;9.68;100.00
10466;BME280;5280;42.600;23.556;2023-05-01T02:14:02;93392.16;;;9.67;100.00
10466;BME280;5280;42.600;23.556;2023-05-01T02:16:31;93405.84;;;9.72;100.00
10466;BME280;5280;42.600;23.556;2023-05-01T02:18:59;93409.34;;;9.73;100.00
10466;BME280;5280;42.600;23.556;2023-05-01T02:21:28;93408.63;;;9.71;100.00
10466;BME280;5280;42.600;23.556;2023-05-01T02:23:58;93408.72;;;9.69;100.00
10466;BME280;5280;42.600;23.556;2023-05-01T02:26:27;93406.84;;;9.71;100.00
10466;BME280;5280;42.600;23.556;2023-05-01T02:28:54;93401.66;;;9.70;100.00
10466;BME280;5280;42.600;23.556;2023-05-01T02:31:21;93373.78;;;9.55;100.00
10466;BME280;5280;42.600;23.556;2023-05-01T02:33:48;93393.00;;;9.68;100.00
10466;BME280;5280;42.600;23.556;2023-05-01T02:36:15;93400.31;;;9.64;100.00
10466;BME280;5280;42.600;23.556;2023-05-01T02:38:42;93399.47;;;9.64;100.00
10466;BME280;5280;42.600;23.556;2023-05-01T02:41:14;93381.47;;;9.58;100.00
10466;BME280;5280;42.600;23.556;2023-05-01T02:43:42;93381.47;;;9.58;100.00
10466;BME280;5280;42.600;23.556;2023-05-01T02:46:12;93374.25;;;9.48;100.00
10466;BME280;5280;42.600;23.556;2023-05-01T02:48:40;93384.56;;;9.51;100.00
10466;BME280;5280;42.600;23.556;2023-05-01T02:51:08;93389.13;;;9.49;100.00
10466;BME280;5280;42.600;23.556;2023-05-01T02:53:35;93417.22;;;9.62;100.00
10466;BME280;5280;42.600;23.556;2023-05-01T02:56:04;93421.66;;;9.61;100.00
10466;BME280;5280;42.600;23.556;2023-05-01T02:58:33;93415.31;;;9.64;100.00
10466;BME280;5280;42.600;23.556;2023-05-01T03:01:00;93407.13;;;9.56;100.00
10466;BME280;5280;42.600;23.556;2023-05-01T03:03:27;93337.31;;;9.14;100.00
10466;BME280;5280;42.600;23.556;2023-05-01T03:05:54;93409.88;;;9.54;100.00
10466;BME280;5280;42.600;23.556;2023-05-01T03:08:22;93416.59;;;9.58;100.00
10466;BME280;5280;42.600;23.556;2023-05-01T03:10:49;93411.91;;;9.50;100.00
10466;BME280;5280;42.600;23.556;2023-05-01T03:13:16;93407.69;;;9.48;100.00
10466;BME280;5280;42.600;23.556;2023-05-01T03:15:44;93361.41;;;9.09;100.00
10466;BME280;5280;42.600;23.556;2023-05-01T03:18:11;93418.34;;;9.46;100.00
10466;BME280;5280;42.600;23.556;2023-05-01T03:20:38;93413.75;;;9.37;100.00
10466;BME280;5280;42.600;23.556;2023-05-01T03:23:04;93412.72;;;9.40;100.00
10466;BME280;5280;42.600;23.556;2023-05-01T03:25:32;93414.25;;;9.31;100.00
10466;BME280;5280;42.600;23.556;2023-05-01T03:27:58;93413.00;;;9.24;100.00
10466;BME280;5280;42.600;23.556;2023-05-01T03:30:28;93424.28;;;9.26;100.00
10466;BME280;5280;42.600;23.556;2023-05-01T03:32:56;93433.84;;;9.27;100.00
10466;BME280;5280;42.600;23.556;2023-05-01T03:35:23;93438.28;;;9.27;100.00
10466;BME280;5280;42.600;23.556;2023-05-01T03:37:50;93448.53;;;9.31;100.00
10466;BME280;5280;42.600;23.556;2023-05-01T03:40:16;93446.84;;;9.30;100.00
10466;BME280;5280;42.600;23.556;2023-05-01T03:42:43;93445.25;;;9.28;100.00
10466;BME280;5280;42.600;23.556;2023-05-01T03:45:10;93446.94;;;9.29;100.00
10466;BME280;5280;42.600;23.556;2023-05-01T03:47:37;93442.09;;;9.23;100.00
10466;BME280;5280;42.600;23.556;2023-05-01T03:50:06;93439.97;;;9.28;100.00
10466;BME280;5280;42.600;23.556;2023-05-01T03:52:33;93412.44;;;9.08;100.00
10466;BME280;5280;42.600;23.556;2023-05-01T03:55:00;93446.34;;;9.25;100.00
10466;BME280;5280;42.600;23.556;2023-05-01T03:57:27;93438.13;;;9.17;100.00
10466;BME280;5280;42.600;23.556;2023-05-01T03:59:54;93451.59;;;9.25;100.00
10466;BME280;5280;42.600;23.556;2023-05-01T04:02:20;93448.13;;;9.25;100.00
10466;BME280;5280;42.600;23.556;2023-05-01T04:04:47;93448.97;;;9.25;100.00
10466;BME280;5280;42.600;23.556;2023-05-01T04:07:15;93451.59;;;9.25;100.00
10466;BME280;5280;42.600;23.556;2023-05-01T04:09:42;93435.63;;;9.16;100.00
10466;BME280;5280;42.600;23.556;2023-05-01T04:12:09;93452.44;;;9.26;100.00
10466;BME280;5280;42.600;23.556;2023-05-01T04:14:35;93434.97;;;9.12;100.00
10466;BME280;5280;42.600;23.556;2023-05-01T04:17:02;93455.78;;;9.28;100.00
10466;BME280;5280;42.600;23.556;2023-05-01T04:19:29;93462.41;;;9.33;100.00
10466;BME280;5280;42.600;23.556;2023-05-01T04:21:58;93444.91;;;9.32;100.00
10466;BME280;5280;42.600;23.556;2023-05-01T04:24:27;93460.75;;;9.56;100.00
10466;BME280;5280;42.600;23.556;2023-05-01T04:26:53;93466.69;;;9.71;100.00
10466;BME280;5280;42.600;23.556;2023-05-01T04:29:20;93446.56;;;9.81;100.00
10466;BME280;5280;42.600;23.556;2023-05-01T04:31:48;93456.47;;;10.01;100.00
10466;BME280;5280;42.600;23.556;2023-05-01T04:34:15;93461.22;;;10.20;100.00
10466;BME280;5280;42.600;23.556;2023-05-01T04:36:42;93459.41;;;10.31;100.00
10466;BME280;5280;42.600;23.556;2023-05-01T04:39:08;93393.56;;;10.06;100.00
10466;BME280;5280;42.600;23.556;2023-05-01T04:41:40;93451.41;;;10.55;100.00
10466;BME280;5280;42.600;23.556;2023-05-01T04:44:06;93455.72;;;10.78;100.00
10466;BME280;5280;42.600;23.556;2023-05-01T04:46:33;93439.00;;;10.78;100.00
10466;BME280;5280;42.600;23.556;2023-05-01T04:49:00;93464.34;;;11.03;100.00
10466;BME280;5280;42.600;23.556;2023-05-01T04:51:27;93436.34;;;10.89;100.00
10466;BME280;5280;42.600;23.556;2023-05-01T04:53:54;93429.09;;;11.13;100.00
10466;BME280;5280;42.600;23.556;2023-05-01T04:56:21;93453.44;;;11.39;100.00
10466;BME280;5280;42.600;23.556;2023-05-01T04:58:49;93450.91;;;11.38;100.00
10466;BME280;5280;42.600;23.556;2023-05-01T05:01:16;93472.97;;;11.70;100.00
10466;BME280;5280;42.600;23.556;2023-05-01T05:03:43;93484.53;;;11.80;100.00
10466;BME280;5280;42.600;23.556;2023-05-01T05:06:09;93474.88;;;11.68;100.00
10466;BME280;5280;42.600;23.556;2023-05-01T05:08:36;93487.38;;;11.88;100.00
10466;BME280;5280;42.600;23.556;2023-05-01T05:11:03;93490.97;;;11.87;100.00
10466;BME280;5280;42.600;23.556;2023-05-01T05:13:30;93500.31;;;12.02;100.00
10466;BME280;5280;42.600;23.556;2023-05-01T05:15:58;93478.28;;;12.02;100.00
10466;BME280;5280;42.600;23.556;2023-05-01T05:18:25;93499.47;;;12.23;100.00
10466;BME280;5280;42.600;23.556;2023-05-01T05:20:51;93490.06;;;12.30;100.00
10466;BME280;5280;42.600;23.556;2023-05-01T05:23:18;93510.22;;;12.42;100.00
10466;BME280;5280;42.600;23.556;2023-05-01T05:25:45;93491.88;;;12.29;100.00
10466;BME280;5280;42.600;23.556;2023-05-01T05:28:12;93511.56;;;12.57;100.00
10466;BME280;5280;42.600;23.556;2023-05-01T05:30:39;93508.97;;;12.67;100.00
10466;BME280;5280;42.600;23.556;2023-05-01T05:33:08;93525.66;;;12.78;99.23
10466;BME280;5280;42.600;23.556;2023-05-01T05:35:34;93522.94;;;12.89;98.59
10466;BME280;5280;42.600;23.556;2023-05-01T05:38:01;93521.28;;;12.98;92.56
10466;BME280;5280;42.600;23.556;2023-05-01T05:40:28;93506.22;;;12.99;93.40
10466;BME280;5280;42.600;23.556;2023-05-01T05:42:54;93521.69;;;13.14;91.92
10466;BME280;5280;42.600;23.556;2023-05-01T05:45:22;93508.03;;;13.19;93.86
10466;BME280;5280;42.600;23.556;2023-05-01T05:47:48;93518.38;;;13.31;91.81
10466;BME280;5280;42.600;23.556;2023-05-01T05:50:16;93528.16;;;13.31;92.08
10466;BME280;5280;42.600;23.556;2023-05-01T05:52:43;93533.41;;;13.52;90.77
10466;BME280;5280;42.600;23.556;2023-05-01T05:55:10;93519.72;;;13.56;91.30
10466;BME280;5280;42.600;23.556;2023-05-01T05:57:37;93514.88;;;13.71;89.73
10466;BME280;5280;42.600;23.556;2023-05-01T06:00:05;93532.25;;;13.85;88.87
10466;BME280;5280;42.600;23.556;2023-05-01T06:02:32;93512.63;;;13.76;89.08
10466;BME280;5280;42.600;23.556;2023-05-01T06:04:58;93517.41;;;13.92;88.85
10466;BME280;5280;42.600;23.556;2023-05-01T06:07:26;93522.72;;;13.92;88.67
10466;BME280;5280;42.600;23.556;2023-05-01T06:09:54;93531.97;;;14.07;89.34
10466;BME280;5280;42.600;23.556;2023-05-01T06:12:26;93530.84;;;14.00;89.93
10466;BME280;5280;42.600;23.556;2023-05-01T06:14:54;93523.03;;;14.08;89.82
10466;BME280;5280;42.600;23.556;2023-05-01T06:17:21;93539.28;;;14.24;89.16
10466;BME280;5280;42.600;23.556;2023-05-01T06:19:48;93515.47;;;14.32;88.04
10466;BME280;5280;42.600;23.556;2023-05-01T06:22:16;93482.75;;;13.93;87.72
10466;BME280;5280;42.600;23.556;2023-05-01T06:24:45;93530.34;;;14.44;86.59
10466;BME280;5280;42.600;23.556;2023-05-01T06:27:11;93519.84;;;14.43;86.97
10466;BME280;5280;42.600;23.556;2023-05-01T06:29:38;93504.31;;;14.48;87.90
10466;BME280;5280;42.600;23.556;2023-05-01T06:32:05;93521.50;;;14.63;87.55
10466;BME280;5280;42.600;23.556;2023-05-01T06:34:32;93529.75;;;14.79;86.33
10466;BME280;5280;42.600;23.556;2023-05-01T06:36:59;93532.09;;;14.92;86.79
10466;BME280;5280;42.600;23.556;2023-05-01T06:39:25;93534.16;;;15.07;84.22
10466;BME280;5280;42.600;23.556;2023-05-01T06:41:53;93532.16;;;15.19;85.31
10466;BME280;5280;42.600;23.556;2023-05-01T06:44:20;93528.56;;;15.01;85.39
10466;BME280;5280;42.600;23.556;2023-05-01T06:46:47;93541.94;;;15.28;86.80
10466;BME280;5280;42.600;23.556;2023-05-01T06:49:14;93541.78;;;15.30;85.15
10466;BME280;5280;42.600;23.556;2023-05-01T06:51:40;93541.94;;;15.28;85.52
10466;BME280;5280;42.600;23.556;2023-05-01T06:54:07;93548.91;;;15.39;84.60
10466;BME280;5280;42.600;23.556;2023-05-01T06:56:34;93533.34;;;15.44;83.28
10466;BME280;5280;42.600;23.556;2023-05-01T06:59:02;93555.72;;;15.61;83.40
10466;BME280;5280;42.600;23.556;2023-05-01T07:01:32;93545.97;;;15.79;83.03
10466;BME280;5280;42.600;23.556;2023-05-01T07:03:59;93511.69;;;15.57;81.15
10466;BME280;5280;42.600;23.556;2023-05-01T07:06:26;93534.22;;;15.89;82.42
10466;BME280;5280;42.600;23.556;2023-05-01T07:08:52;93553.59;;;16.09;80.85
10466;BME280;5280;42.600;23.556;2023-05-01T07:11:19;93543.19;;;16.16;81.19
10466;BME280;5280;42.600;23.556;2023-05-01T07:13:46;93539.41;;;16.18;79.00
10466;BME280;5280;42.600;23.556;2023-05-01T07:16:14;93525.38;;;15.99;79.18
10466;BME280;5280;42.600;23.556;2023-05-01T07:18:41;93550.13;;;16.26;78.78
10466;BME280;5280;42.600;23.556;2023-05-01T07:21:07;93563.47;;;16.44;77.24
10466;BME280;5280;42.600;23.556;2023-05-01T07:23:36;93568.13;;;16.42;79.21
10466;BME280;5280;42.600;23.556;2023-05-01T07:26:03;93566.75;;;16.56;80.00
10466;BME280;5280;42.600;23.556;2023-05-01T07:28:30;93559.41;;;16.67;80.85
10466;BME280;5280;42.600;23.556;2023-05-01T07:30:57;93562.75;;;16.69;78.65
10466;BME280;5280;42.600;23.556;2023-05-01T07:33:27;93557.41;;;16.87;80.08
10466;BME280;5280;42.600;23.556;2023-05-01T07:35:54;93561.81;;;16.96;78.12
10466;BME280;5280;42.600;23.556;2023-05-01T07:38:20;93562.91;;;17.11;78.53
10466;BME280;5280;42.600;23.556;2023-05-01T07:40:47;93564.28;;;17.15;78.74
10466;BME280;5280;42.600;23.556;2023-05-01T07:43:17;93566.56;;;17.28;77.92
10466;BME280;5280;42.600;23.556;2023-05-01T07:45:53;93577.81;;;17.40;76.76
10466;BME280;5280;42.600;23.556;2023-05-01T07:48:21;93531.56;;;17.13;77.30
10466;BME280;5280;42.600;23.556;2023-05-01T07:50:50;93562.59;;;17.14;75.41
10466;BME280;5280;42.600;23.556;2023-05-01T07:53:17;93569.75;;;17.32;75.93
10466;BME280;5280;42.600;23.556;2023-05-01T07:55:44;93574.47;;;17.38;74.38
10466;BME280;5280;42.600;23.556;2023-05-01T07:58:11;93567.47;;;17.45;71.21
10466;BME280;5280;42.600;23.556;2023-05-01T08:00:38;93575.88;;;17.76;72.16
10466;BME280;5280;42.600;23.556;2023-05-01T08:03:05;93580.75;;;17.88;71.86
10466;BME280;5280;42.600;23.556;2023-05-01T08:05:32;93563.78;;;18.05;71.92
10466;BME280;5280;42.600;23.556;2023-05-01T08:08:04;93567.31;;;18.06;69.25
10466;BME280;5280;42.600;23.556;2023-05-01T08:10:30;93530.72;;;18.15;67.96
10466;BME280;5280;42.600;23.556;2023-05-01T08:12:57;93565.91;;;18.44;59.81
10466;BME280;5280;42.600;23.556;2023-05-01T08:15:24;93565.25;;;18.42;62.56
10466;BME280;5280;42.600;23.556;2023-05-01T08:17:51;93567.94;;;18.42;61.49
10466;BME280;5280;42.600;23.556;2023-05-01T08:20:18;93566.59;;;18.38;64.95
10466;BME280;5280;42.600;23.556;2023-05-01T08:22:45;93556.22;;;18.51;63.83
10466;BME280;5280;42.600;23.556;2023-05-01T08:25:17;93510.00;;;18.25;61.69
10466;BME280;5280;42.600;23.556;2023-05-01T08:27:45;93581.72;;;18.71;57.58
10466;BME280;5280;42.600;23.556;2023-05-01T08:30:13;93529.50;;;18.59;60.67
10466;BME280;5280;42.600;23.556;2023-05-01T08:32:40;93573.38;;;18.90;53.35
10466;BME280;5280;42.600;23.556;2023-05-01T08:35:07;93570.03;;;19.05;54.13
10466;BME280;5280;42.600;23.556;2023-05-01T08:37:34;93558.66;;;19.03;57.16
10466;BME280;5280;42.600;23.556;2023-05-01T08:40:01;93558.31;;;19.22;50.09
10466;BME280;5280;42.600;23.556;2023-05-01T08:42:35;93563.34;;;19.17;47.71
10466;BME280;5280;42.600;23.556;2023-05-01T08:45:04;93561.66;;;19.32;52.02
10466;BME280;5280;42.600;23.556;2023-05-01T08:47:37;93559.78;;;19.41;51.04
10466;BME280;5280;42.600;23.556;2023-05-01T08:50:08;93550.28;;;19.46;50.13
10466;BME280;5280;42.600;23.556;2023-05-01T08:52:39;93554.94;;;19.44;50.88
10466;BME280;5280;42.600;23.556;2023-05-01T08:55:10;93550.44;;;19.45;52.84
10466;BME280;5280;42.600;23.556;2023-05-01T08:57:44;93549.56;;;19.60;53.53
10466;BME280;5280;42.600;23.556;2023-05-01T09:00:15;93526.59;;;19.58;51.08
10466;BME280;5280;42.600;23.556;2023-05-01T09:02:45;93548.00;;;19.74;51.20
10466;BME280;5280;42.600;23.556;2023-05-01T09:05:14;93535.69;;;19.96;50.07
10466;BME280;5280;42.600;23.556;2023-05-01T09:07:42;93535.63;;;20.12;51.80
10466;BME280;5280;42.600;23.556;2023-05-01T09:10:11;93539.28;;;20.19;49.94
10466;BME280;5280;42.600;23.556;2023-05-01T09:12:41;93523.22;;;20.11;49.81
10466;BME280;5280;42.600;23.556;2023-05-01T09:15:10;93531.72;;;20.31;49.18
10466;BME280;5280;42.600;23.556;2023-05-01T09:17:37;93502.22;;;20.14;49.83
10466;BME280;5280;42.600;23.556;2023-05-01T09:20:07;93523.44;;;20.40;49.07
10466;BME280;5280;42.600;23.556;2023-05-01T09:22:34;93536.09;;;20.54;47.04
10466;BME280;5280;42.600;23.556;2023-05-01T09:25:01;93531.16;;;20.66;48.79
10466;BME280;5280;42.600;23.556;2023-05-01T09:27:33;93497.19;;;20.50;46.31
10466;BME280;5280;42.600;23.556;2023-05-01T09:30:03;93524.16;;;20.80;46.50
10466;BME280;5280;42.600;23.556;2023-05-01T09:32:31;93489.03;;;20.67;45.35
10466;BME280;5280;42.600;23.556;2023-05-01T09:35:08;93488.22;;;20.58;46.97
10466;BME280;5280;42.600;23.556;2023-05-01T09:37:36;93523.75;;;20.68;47.54
10466;BME280;5280;42.600;23.556;2023-05-01T09:40:04;93535.09;;;20.78;46.28
10466;BME280;5280;42.600;23.556;2023-05-01T09:42:32;93534.16;;;20.71;47.22
10466;BME280;5280;42.600;23.556;2023-05-01T09:44:59;93525.72;;;20.74;47.30
10466;BME280;5280;42.600;23.556;2023-05-01T09:47:29;93498.84;;;20.74;44.50
10466;BME280;5280;42.600;23.556;2023-05-01T09:49:58;93492.31;;;20.77;46.14
10466;BME280;5280;42.600;23.556;2023-05-01T09:52:26;93515.81;;;21.12;46.95
10466;BME280;5280;42.600;23.556;2023-05-01T09:55:12;93510.66;;;21.11;45.34
10466;BME280;5280;42.600;23.556;2023-05-01T09:57:42;93527.63;;;21.11;45.13
10466;BME280;5280;42.600;23.556;2023-05-01T10:00:11;93518.84;;;21.17;45.66
10466;BME280;5280;42.600;23.556;2023-05-01T10:02:44;93517.59;;;21.05;46.31
10466;BME280;5280;42.600;23.556;2023-05-01T10:05:12;93521.41;;;21.11;46.91
10466;BME280;5280;42.600;23.556;2023-05-01T10:07:54;93523.69;;;21.22;46.52
10466;BME280;5280;42.600;23.556;2023-05-01T10:10:21;93512.69;;;21.31;45.31
10466;BME280;5280;42.600;23.556;2023-05-01T10:12:49;93529.69;;;21.46;45.31
10466;BME280;5280;42.600;23.556;2023-05-01T10:15:23;93496.53;;;21.17;44.79
10466;BME280;5280;42.600;23.556;2023-05-01T10:18:03;93513.13;;;21.12;45.02
10466;BME280;5280;42.600;23.556;2023-05-01T10:20:31;93528.34;;;21.42;44.95
10466;BME280;5280;42.600;23.556;2023-05-01T10:22:58;93510.84;;;21.46;44.83
10466;BME280;5280;42.600;23.556;2023-05-01T10:25:28;93498.88;;;21.49;44.85
10466;BME280;5280;42.600;23.556;2023-05-01T10:27:55;93513.75;;;21.89;44.14
10466;BME280;5280;42.600;23.556;2023-05-01T10:30:25;93524.63;;;21.96;43.18
10466;BME280;5280;42.600;23.556;2023-05-01T10:32:52;93516.03;;;21.92;44.95
10466;BME280;5280;42.600;23.556;2023-05-01T10:35:23;93503.16;;;22.02;45.65
10466;BME280;5280;42.600;23.556;2023-05-01T10:37:58;93505.13;;;22.08;45.38
10466;BME280;5280;42.600;23.556;2023-05-01T10:40:46;93517.00;;;21.99;43.72
10466;BME280;5280;42.600;23.556;2023-05-01T10:43:15;93522.53;;;21.54;44.47
10466;BME280;5280;42.600;23.556;2023-05-01T10:45:42;93520.19;;;21.21;43.97
10466;BME280;5280;42.600;23.556;2023-05-01T10:48:09;93513.03;;;21.28;44.49
10466;BME280;5280;42.600;23.556;2023-05-01T10:51:11;93524.31;;;21.46;45.91
10466;BME280;5280;42.600;23.556;2023-05-01T10:53:39;93525.88;;;21.56;45.46
10466;BME280;5280;42.600;23.556;2023-05-01T10:56:39;93520.13;;;21.59;44.25
10466;BME280;5280;42.600;23.556;2023-05-01T10:59:07;93530.97;;;21.36;41.38
10466;BME280;5280;42.600;23.556;2023-05-01T11:01:37;93532.88;;;21.27;42.53
10466;BME280;5280;42.600;23.556;2023-05-01T11:04:06;93535.72;;;21.03;41.20
10466;BME280;5280;42.600;23.556;2023-05-01T11:06:35;93526.38;;;20.76;42.31
10466;BME280;5280;42.600;23.556;2023-05-01T11:09:37;93544.13;;;20.85;43.98
10466;BME280;5280;42.600;23.556;2023-05-01T11:12:06;93515.22;;;20.42;45.03
10466;BME280;5280;42.600;23.556;2023-05-01T11:15:04;93541.56;;;20.38;47.26
10466;BME280;5280;42.600;23.556;2023-05-01T11:17:45;93540.41;;;20.33;47.60
10466;BME280;5280;42.600;23.556;2023-05-01T11:20:44;93533.84;;;19.96;48.07
10466;BME280;5280;42.600;23.556;2023-05-01T11:23:18;93532.97;;;20.04;49.61
10466;BME280;5280;42.600;23.556;2023-05-01T11:25:46;93525.50;;;19.91;45.29
10466;BME280;5280;42.600;23.556;2023-05-01T11:28:18;93539.00;;;20.06;45.52
10466;BME280;5280;42.600;23.556;2023-05-01T11:30:46;93539.81;;;20.14;43.86
10466;BME280;5280;42.600;23.556;2023-05-01T11:33:21;93544.00;;;20.17;46.13
10466;BME280;5280;42.600;23.556;2023-05-01T11:35:56;93529.28;;;20.05;44.22
10466;BME280;5280;42.600;23.556;2023-05-01T11:38:25;93529.44;;;20.11;44.05
10466;BME280;5280;42.600;23.556;2023-05-01T11:41:00;93525.75;;;20.04;43.89
10466;BME280;5280;42.600;23.556;2023-05-01T11:43:28;93506.13;;;20.04;42.83
10466;BME280;5280;42.600;23.556;2023-05-01T11:45:55;93528.13;;;20.07;41.98
10466;BME280;5280;42.600;23.556;2023-05-01T11:48:28;93502.88;;;19.86;44.03
10466;BME280;5280;42.600;23.556;2023-05-01T11:50:55;93540.72;;;19.99;43.79
10466;BME280;5280;42.600;23.556;2023-05-01T11:53:22;93549.63;;;19.91;45.12
10466;BME280;5280;42.600;23.556;2023-05-01T11:55:51;93535.44;;;19.74;45.61
10466;BME280;5280;42.600;23.556;2023-05-01T11:58:29;93534.59;;;19.74;45.77
10466;BME280;5280;42.600;23.556;2023-05-01T12:00:57;93538.16;;;19.66;45.50
10466;BME280;5280;42.600;23.556;2023-05-01T12:03:24;93520.25;;;19.43;45.87
10466;BME280;5280;42.600;23.556;2023-05-01T12:05:51;93545.19;;;19.59;44.97
10466;BME280;5280;42.600;23.556;2023-05-01T12:08:19;93540.84;;;19.66;44.56
10466;BME280;5280;42.600;23.556;2023-05-01T12:10:50;93543.34;;;19.60;42.88
10466;BME280;5280;42.600;23.556;2023-05-01T12:13:18;93551.75;;;19.57;43.03
10466;BME280;5280;42.600;23.556;2023-05-01T12:15:47;93529.94;;;19.60;40.56
10466;BME280;5280;42.600;23.556;2023-05-01T12:18:15;93544.78;;;19.87;40.63
10466;BME280;5280;42.600;23.556;2023-05-01T12:20:43;93531.66;;;20.00;40.42
10466;BME280;5280;42.600;23.556;2023-05-01T12:23:12;93544.47;;;20.20;41.83
10466;BME280;5280;42.600;23.556;2023-05-01T12:25:41;93547.81;;;20.23;38.66
10466;BME280;5280;42.600;23.556;2023-05-01T12:28:11;93545.13;;;19.92;40.47
10466;BME280;5280;42.600;23.556;2023-05-01T12:30:38;93522.28;;;19.96;42.16
10466;BME280;5280;42.600;23.556;2023-05-01T12:33:10;93542.31;;;20.16;41.80
10466;BME280;5280;42.600;23.556;2023-05-01T12:35:37;93537.03;;;20.00;41.20
10466;BME280;5280;42.600;23.556;2023-05-01T12:38:12;93515.81;;;19.82;43.49
10466;BME280;5280;42.600;23.556;2023-05-01T12:40:47;93546.69;;;20.09;43.61
10466;BME280;5280;42.600;23.556;2023-05-01T12:43:16;93501.16;;;19.93;42.69
10466;BME280;5280;42.600;23.556;2023-05-01T12:45:43;93511.94;;;19.85;44.97
10466;BME280;5280;42.600;23.556;2023-05-01T12:48:13;93551.44;;;19.99;45.12
10466;BME280;5280;42.600;23.556;2023-05-01T12:50:59;93561.00;;;20.01;46.62
10466;BME280;5280;42.600;23.556;2023-05-01T12:53:27;93542.75;;;19.97;47.50
10466;BME280;5280;42.600;23.556;2023-05-01T12:55:55;93557.63;;;20.07;48.52
10466;BME280;5280;42.600;23.556;2023-05-01T12:58:23;93563.78;;;20.16;50.24
10466;BME280;5280;42.600;23.556;2023-05-01T13:00:52;93557.13;;;20.04;48.79
10466;BME280;5280;42.600;23.556;2023-05-01T13:03:23;93553.97;;;20.00;47.67
10466;BME280;5280;42.600;23.556;2023-05-01T13:05:55;93558.97;;;20.03;45.87
10466;BME280;5280;42.600;23.556;2023-05-01T13:08:30;93552.47;;;19.90;45.96
10466;BME280;5280;42.600;23.556;2023-05-01T13:10:58;93563.25;;;19.82;45.50